Flora, IL

01:43 PM CST am 03. Dezember 2016 (GMT -0600)
Flora Municipal | | Change Station

Höhe 472 ft 38.67 °N, 88.45 °W | Updated 8 minutes ago

Clear
Heiter
44 °F
gefühlte 44 °F
N
0
Wind Wechselnd Wind aus Nord

Heute
Max. -- | schwach -- °F
--% Regenrisiko
Gestern
Max. -- | schwach -- °F
Precip. -- inch
Druck 30.33 inch
Sichtweite 10.0 Meilen
Wolken Heiter
Taupunkt 32 °F
Feuchtigkeit 63%
Regen 0.00 inch
Schneehöhe Nicht verfügbar..
6:55 AM 4:32 PM
Erstes Viertel, 16% visible
METAR KFOA 031935Z AUTO 00000KT 10SM CLR 07/00 A3033 RMK AO2 T00670001
Druck 30.33 inch
Sichtweite 10.0 Meilen
Wolken Heiter
Taupunkt 32 °F
Feuchtigkeit 63%
Regen 0.00 inch
Schneehöhe Nicht verfügbar..
6:55 AM 4:32 PM
Erstes Viertel, 16% visible
METAR KFOA 031935Z AUTO 00000KT 10SM CLR 07/00 A3033 RMK AO2 T00670001

10-Day Weather Forecast

Almanac

Astronomie

Dec. 03, 2016 Aufgang Untergang
Genaue Zeit
Bürgerliche Dämmerung
Nautische Dämmerung
Astronomische Dämmerung
Mond
Länge des sichtbaren Lichts
Tageslänge
Tomorrow will be .
, % of the Moon is Illuminated

Heutige Rekorde

State Highs State Lows

Community

WunderPhotos

Upload Photos

1,955,481 Fotos hochgeladen!

WunderBlog® & News

Nearby

Luftqualität

  Luftqualität LQ Index Schadstoff
Not available.

Schneehöhe

Station Depth Höhe

Erdbebenaktivität

Stadt Distance Mag. Time & Date
Minimum magnitude displayed is 2.5.

küstennahe Wassertemperaturen

Ort Temperatur

Stations

Wetterstationen in der Umgebung

Stationsstandort Temp. Windchill Taupunkt Feuchtigkeit Wind Precip. Höhe Aktualisiert Art
                   

Watches & Warnings

There are currently no watches in effect.